Time;durP1;ratioP1;P1;durP2;ratioP2;P2;SDS_P1;SDS_P2;PMS_P1;PMS_P2;Temp;Humidity;BMP_temperature;BMP_pressure;BME280_temperature;BME280_humidity;BME280_pressure;Samples;Min_cycle;Max_cycle;Signal;HPM_P1;HPM_P2
2022/10/29 00:02:24;;;;;;;20.63;8.80;;;;;15.30;101573.00;;;;10309877;28;20299;-77
2022/10/29 00:07:26;;;;;;;19.13;8.93;;;;;15.20;101571.00;;;;10309128;28;20303;-77
2022/10/29 00:12:28;;;;;;;15.70;8.45;;;;;15.20;101566.00;;;;10314776;28;20193;-76
2022/10/29 00:17:30;;;;;;;16.42;8.38;;;;;15.20;101562.00;;;;10314451;28;20193;-77
2022/10/29 00:22:32;;;;;;;13.20;7.90;;;;;15.10;101572.00;;;;10327219;28;20203;-79
2022/10/29 00:27:34;;;;;;;14.07;7.77;;;;;15.00;101568.00;;;;10334567;28;20275;-77
2022/10/29 00:32:36;;;;;;;16.27;7.70;;;;;14.90;101564.00;;;;10276195;28;20191;-77
2022/10/29 00:37:39;;;;;;;16.50;8.03;;;;;14.80;101571.00;;;;10300590;28;20192;-77
2022/10/29 00:42:41;;;;;;;13.50;7.40;;;;;14.70;101572.00;;;;10277928;28;20809;-77
2022/10/29 00:47:44;;;;;;;10.83;7.17;;;;;14.70;101566.00;;;;10293147;28;20191;-77
2022/10/29 00:52:48;;;;;;;16.60;7.60;;;;;14.70;101561.00;;;;10303142;28;20556;-79
2022/10/29 00:57:53;;;;;;;24.37;8.30;;;;;14.70;101553.00;;;;10317365;28;20287;-77
2022/10/29 01:02:56;;;;;;;21.87;8.67;;;;;14.60;101551.00;;;;10322275;28;20291;-76
2022/10/29 01:08:00;;;;;;;14.50;8.57;;;;;14.60;101546.00;;;;10299853;28;20790;-76
2022/10/29 01:13:08;;;;;;;17.30;8.33;;;;;14.60;101545.00;;;;10271188;28;20203;-75
2022/10/29 01:18:10;;;;;;;14.07;7.83;;;;;14.50;101543.00;;;;10295072;28;20211;-76
2022/10/29 01:23:49;;;;;;;16.27;8.25;;;;;14.50;101529.00;;;;10284969;28;20291;-76
2022/10/29 01:28:54;;;;;;;13.33;7.77;;;;;14.50;101527.00;;;;10299263;28;20196;-76
2022/10/29 01:34:04;;;;;;;13.07;8.37;;;;;14.50;101522.00;;;;10296019;28;20180;-76
2022/10/29 01:39:23;;;;;;;15.37;8.63;;;;;14.50;101520.00;;;;10277677;28;20195;-76
2022/10/29 01:44:34;;;;;;;20.70;8.73;;;;;14.60;101519.00;;;;10299795;28;20216;-78
2022/10/29 01:49:43;;;;;;;16.10;8.90;;;;;14.60;101519.00;;;;10297221;28;20201;-76
2022/10/29 01:54:46;;;;;;;17.07;8.50;;;;;14.70;101512.00;;;;10307224;28;20208;-76
2022/10/29 01:59:48;;;;;;;17.90;8.50;;;;;14.70;101520.00;;;;10326330;28;20788;-76
2022/10/29 02:05:02;;;;;;;15.23;8.30;;;;;14.70;101509.00;;;;10299480;28;20230;-76
2022/10/29 02:10:18;;;;;;;16.90;9.43;;;;;14.50;101500.00;;;;10317024;28;20543;-76
2022/10/29 02:15:33;;;;;;;18.97;9.37;;;;;14.40;101489.00;;;;10342858;28;20187;-75
2022/10/29 02:20:41;;;;;;;20.67;9.53;;;;;14.40;101482.00;;;;10313402;28;20188;-76
2022/10/29 02:25:43;;;;;;;17.30;9.37;;;;;14.30;101482.00;;;;10300528;28;20697;-76
2022/10/29 02:30:45;;;;;;;19.13;10.13;;;;;14.30;101480.00;;;;10302119;28;20547;-76
2022/10/29 02:35:47;;;;;;;15.30;9.13;;;;;14.20;101479.00;;;;10309708;28;20189;-75
2022/10/29 02:40:48;;;;;;;18.03;9.60;;;;;14.30;101487.00;;;;10325732;28;20377;-75
2022/10/29 02:46:08;;;;;;;18.50;10.33;;;;;14.50;101474.00;;;;10320157;28;20208;-75
2022/10/29 02:51:11;;;;;;;22.00;9.90;;;;;14.70;101452.00;;;;10276652;28;20655;-76
2022/10/29 02:56:12;;;;;;;27.80;10.13;;;;;14.70;101430.00;;;;10317725;28;20206;-76
2022/10/29 03:01:14;;;;;;;20.00;10.23;;;;;14.70;101431.00;;;;10333873;28;20196;-75
2022/10/29 03:06:18;;;;;;;20.73;9.93;;;;;14.70;101417.00;;;;10299877;28;20324;-76
2022/10/29 03:11:20;;;;;;;17.70;9.93;;;;;14.70;101416.00;;;;10329118;28;20239;-76
2022/10/29 03:16:22;;;;;;;16.20;9.30;;;;;14.70;101391.00;;;;10308190;28;20189;-76
2022/10/29 03:21:24;;;;;;;17.57;9.30;;;;;14.70;101387.00;;;;10336060;28;20194;-76
2022/10/29 03:26:26;;;;;;;15.77;9.90;;;;;14.70;101394.00;;;;10313347;28;20687;-76
2022/10/29 03:31:28;;;;;;;21.43;10.17;;;;;14.70;101385.00;;;;10295270;28;20192;-76
2022/10/29 03:36:30;;;;;;;23.83;9.23;;;;;14.60;101380.00;;;;10335271;28;20667;-76
2022/10/29 03:41:31;;;;;;;23.03;10.30;;;;;14.70;101376.00;;;;10306058;28;20196;-76
2022/10/29 03:46:33;;;;;;;15.77;9.27;;;;;14.60;101379.00;;;;10323073;28;20207;-76
2022/10/29 03:51:35;;;;;;;17.43;9.80;;;;;14.60;101361.00;;;;10309562;28;20196;-76
2022/10/29 03:56:37;;;;;;;20.50;9.53;;;;;14.60;101349.00;;;;10281760;28;20263;-76
2022/10/29 04:01:39;;;;;;;20.07;9.27;;;;;14.60;101351.00;;;;10295894;28;20196;-76
2022/10/29 04:06:41;;;;;;;15.73;9.17;;;;;14.60;101347.00;;;;10322123;28;20215;-76
2022/10/29 04:11:43;;;;;;;16.03;8.90;;;;;14.50;101352.00;;;;10306370;28;20192;-76
2022/10/29 04:16:45;;;;;;;20.97;10.30;;;;;14.50;101344.00;;;;10282316;28;20184;-76
2022/10/29 04:21:48;;;;;;;19.80;9.80;;;;;14.70;101340.00;;;;10311778;28;20208;-76
2022/10/29 04:27:09;;;;;;;17.77;9.73;;;;;14.80;101332.00;;;;10302815;28;20204;-77
2022/10/29 04:32:32;;;;;;;16.23;8.30;;;;;15.00;101326.00;;;;10273625;28;20336;-77
2022/10/29 04:37:33;;;;;;;18.10;9.17;;;;;15.10;101326.00;;;;10309100;28;20187;-77
2022/10/29 04:42:36;;;;;;;16.93;8.27;;;;;15.20;101327.00;;;;10287984;28;20271;-77
2022/10/29 04:47:38;;;;;;;19.90;8.63;;;;;15.20;101335.00;;;;10291752;28;20255;-77
2022/10/29 04:52:40;;;;;;;16.75;8.48;;;;;15.20;101306.00;;;;10289933;28;20181;-77
2022/10/29 04:57:42;;;;;;;21.30;9.30;;;;;15.30;101311.00;;;;10299813;28;20204;-77
2022/10/29 05:02:50;;;;;;;19.00;8.40;;;;;15.30;101305.00;;;;10303287;28;20227;-77
2022/10/29 05:08:00;;;;;;;19.47;8.70;;;;;15.30;101309.00;;;;10290066;28;20221;-77
2022/10/29 05:13:09;;;;;;;20.93;7.87;;;;;15.30;101308.00;;;;10317385;28;20208;-77
2022/10/29 05:18:11;;;;;;;13.33;8.03;;;;;15.30;101299.00;;;;10286184;28;20211;-77
2022/10/29 05:23:13;;;;;;;15.90;7.80;;;;;15.20;101305.00;;;;10297902;28;20203;-77
2022/10/29 05:28:18;;;;;;;13.13;7.93;;;;;15.20;101307.00;;;;10280249;28;20207;-77
2022/10/29 05:33:23;;;;;;;16.52;7.75;;;;;15.10;101305.00;;;;10277602;28;20193;-77
2022/10/29 05:38:24;;;;;;;14.97;8.17;;;;;14.90;101307.00;;;;10325502;28;20247;-77
2022/10/29 05:43:26;;;;;;;14.83;7.57;;;;;14.70;101297.00;;;;10311637;28;20608;-77
2022/10/29 05:48:29;;;;;;;20.23;8.03;;;;;14.60;101308.00;;;;10280503;28;20697;-77
2022/10/29 05:53:31;;;;;;;13.47;7.23;;;;;14.50;101294.00;;;;10316591;28;20607;-77
2022/10/29 05:58:33;;;;;;;21.90;7.60;;;;;14.40;101289.00;;;;10316652;28;20195;-77
2022/10/29 06:03:37;;;;;;;16.13;7.50;;;;;14.30;101295.00;;;;10308186;28;20308;-77
2022/10/29 06:08:39;;;;;;;19.30;8.37;;;;;14.20;101295.00;;;;10309308;28;20587;-77
2022/10/29 06:13:41;;;;;;;20.07;8.00;;;;;14.20;101307.00;;;;10298034;28;20189;-77
2022/10/29 06:18:43;;;;;;;16.53;7.77;;;;;14.20;101291.00;;;;10317574;28;20823;-77
2022/10/29 06:23:44;;;;;;;13.80;8.20;;;;;14.20;101284.00;;;;10311534;28;20211;-77
2022/10/29 06:28:46;;;;;;;18.40;7.83;;;;;14.10;101278.00;;;;10304390;28;20198;-77
2022/10/29 06:33:48;;;;;;;15.67;7.73;;;;;14.00;101289.00;;;;10335557;28;20180;-77
2022/10/29 06:38:50;;;;;;;12.53;7.37;;;;;14.00;101288.00;;;;10313294;28;20195;-77
2022/10/29 06:43:52;;;;;;;17.67;8.73;;;;;14.10;101291.00;;;;10310777;28;20208;-77
2022/10/29 06:48:54;;;;;;;17.83;8.57;;;;;14.30;101282.00;;;;10302509;28;20550;-77
2022/10/29 06:53:56;;;;;;;19.63;9.33;;;;;14.50;101274.00;;;;10312490;28;20200;-77
2022/10/29 06:58:58;;;;;;;17.13;9.80;;;;;14.50;101267.00;;;;10311463;28;20616;-77
2022/10/29 07:04:00;;;;;;;19.93;8.00;;;;;14.50;101265.00;;;;10282446;28;20212;-77
2022/10/29 07:09:03;;;;;;;15.27;8.57;;;;;14.50;101261.00;;;;10303298;28;20219;-77
2022/10/29 07:14:07;;;;;;;19.43;8.37;;;;;14.60;101272.00;;;;10295593;28;20192;-77
2022/10/29 07:19:09;;;;;;;16.17;8.30;;;;;14.60;101263.00;;;;10290171;28;20202;-77
2022/10/29 07:24:17;;;;;;;15.23;7.93;;;;;14.70;101261.00;;;;10326023;28;20210;-77
2022/10/29 07:29:19;;;;;;;11.07;7.60;;;;;14.90;101269.00;;;;10251964;28;20189;-76
2022/10/29 07:34:21;;;;;;;15.40;8.03;;;;;15.20;101259.00;;;;10307553;28;20180;-76
2022/10/29 07:39:22;;;;;;;108.90;18.93;;;;;15.40;101276.00;;;;10302196;28;20207;-76
2022/10/29 07:44:24;;;;;;;47.40;13.67;;;;;15.60;101266.00;;;;10294251;28;20212;-77
2022/10/29 07:49:26;;;;;;;31.65;10.20;;;;;15.80;101265.00;;;;10316876;28;20192;-76
2022/10/29 07:54:29;;;;;;;20.90;7.93;;;;;16.10;101267.00;;;;10322727;28;20283;-76
2022/10/29 07:59:31;;;;;;;18.30;8.15;;;;;16.50;101277.00;;;;10271907;28;20188;-77
2022/10/29 08:04:32;;;;;;;36.15;9.70;;;;;16.60;101266.00;;;;10291835;28;20192;-77
2022/10/29 08:09:34;;;;;;;195.85;25.35;;;;;16.60;101274.00;;;;10322320;28;20275;-77
2022/10/29 08:14:36;;;;;;;42.70;10.15;;;;;16.70;101273.00;;;;10289467;28;20706;-77
2022/10/29 08:19:38;;;;;;;183.82;30.88;;;;;17.00;101272.00;;;;10322224;28;20196;-77
2022/10/29 08:24:40;;;;;;;107.80;20.45;;;;;17.20;101275.00;;;;10290923;28;20278;-77
2022/10/29 08:29:42;;;;;;;24.73;7.93;;;;;17.90;101277.00;;;;10324775;28;20192;-77
2022/10/29 08:34:44;;;;;;;14.10;6.60;;;;;18.30;101269.00;;;;10277538;28;20200;-75
2022/10/29 08:39:45;;;;;;;15.30;6.00;;;;;18.90;101270.00;;;;10320256;28;20201;-75
2022/10/29 08:45:27;;;;;;;20.77;6.15;;;;;19.80;101273.00;;;;10310086;28;20211;-75
2022/10/29 08:50:33;;;;;;;13.77;4.50;;;;;20.70;101259.00;;;;10288102;28;20246;-75
2022/10/29 08:55:36;;;;;;;13.60;4.55;;;;;20.70;101259.00;;;;10286177;28;20224;-76
2022/10/29 09:00:41;;;;;;;11.32;4.43;;;;;20.40;101259.00;;;;10274868;28;20193;-76
2022/10/29 09:06:18;;;;;;;14.10;4.40;;;;;20.20;101265.00;;;;10311511;28;20222;-76
2022/10/29 09:11:50;;;;;;;10.98;4.35;;;;;19.90;101267.00;;;;10168030;28;20544;-76
2022/10/29 09:17:11;;;;;;;16.95;5.85;;;;;19.80;101271.00;;;;10278533;28;20216;-76
2022/10/29 09:22:38;;;;;;;11.27;5.35;;;;;19.90;101248.00;;;;10254826;28;20230;-76
2022/10/29 09:27:50;;;;;;;11.05;4.28;;;;;19.90;101250.00;;;;10284186;28;20225;-76
2022/10/29 09:32:52;;;;;;;29.95;6.65;;;;;20.00;101241.00;;;;10292305;28;20235;-75
2022/10/29 09:38:00;;;;;;;6.00;4.22;;;;;20.10;101248.00;;;;10285434;28;20188;-75
2022/10/29 09:43:24;;;;;;;12.18;5.18;;;;;20.20;101247.00;;;;10268283;28;20579;-75
2022/10/29 09:48:32;;;;;;;20.85;6.30;;;;;20.00;101241.00;;;;10262725;28;20539;-76
2022/10/29 09:53:34;;;;;;;15.93;5.57;;;;;20.40;101247.00;;;;10295670;28;20216;-76
2022/10/29 09:58:41;;;;;;;9.15;4.43;;;;;20.50;101248.00;;;;10269627;28;20191;-76
2022/10/29 10:03:46;;;;;;;12.10;4.75;;;;;20.60;101238.00;;;;10286607;28;20762;-76
2022/10/29 10:09:04;;;;;;;10.10;4.30;;;;;21.00;101241.00;;;;10308382;28;20291;-76
2022/10/29 10:14:15;;;;;;;8.52;4.40;;;;;21.50;101234.00;;;;10303635;28;21596;-76
2022/10/29 10:19:30;;;;;;;9.93;4.63;;;;;21.80;101229.00;;;;10285367;28;20200;-75
2022/10/29 10:24:37;;;;;;;9.63;3.92;;;;;22.20;101232.00;;;;10290469;28;20211;-75
2022/10/29 10:29:39;;;;;;;20.50;6.43;;;;;22.80;101234.00;;;;10279127;28;20193;-76
2022/10/29 10:34:41;;;;;;;12.02;4.60;;;;;23.30;101245.00;;;;10320767;28;20276;-76
2022/10/29 10:40:09;;;;;;;13.77;4.32;;;;;23.80;101227.00;;;;10298692;28;20542;-76
2022/10/29 10:45:29;;;;;;;10.45;4.32;;;;;24.20;101219.00;;;;10331268;28;20196;-76
2022/10/29 10:50:33;;;;;;;18.42;4.88;;;;;24.50;101212.00;;;;10269665;28;20196;-76
2022/10/29 10:55:37;;;;;;;11.10;3.70;;;;;24.90;101206.00;;;;10330049;28;20203;-77
2022/10/29 11:00:43;;;;;;;14.10;4.43;;;;;25.20;101206.00;;;;10277050;28;20279;-76
2022/10/29 11:06:05;;;;;;;11.73;3.72;;;;;25.40;101203.00;;;;10301147;28;20212;-76
2022/10/29 11:11:14;;;;;;;9.98;3.85;;;;;25.40;101191.00;;;;10313097;28;20200;-77
2022/10/29 11:16:47;;;;;;;6.93;3.42;;;;;25.40;101192.00;;;;10327251;28;20188;-76
2022/10/29 11:21:55;;;;;;;10.32;4.10;;;;;24.90;101190.00;;;;10322112;28;20191;-76
2022/10/29 11:27:05;;;;;;;10.35;3.38;;;;;25.30;101179.00;;;;10297355;28;20218;-77
2022/10/29 11:32:23;;;;;;;11.00;3.75;;;;;25.50;101173.00;;;;10285462;28;20729;-76
2022/10/29 11:37:34;;;;;;;13.13;4.00;;;;;25.70;101175.00;;;;10304386;28;20673;-76
2022/10/29 11:42:38;;;;;;;9.98;3.83;;;;;25.60;101165.00;;;;10302041;28;20300;-76
2022/10/29 11:47:52;;;;;;;9.50;3.78;;;;;25.70;101166.00;;;;10270899;28;20213;-76
2022/10/29 11:53:11;;;;;;;13.35;3.80;;;;;26.00;101145.00;;;;10318208;28;20894;-76
2022/10/29 11:58:30;;;;;;;12.88;4.07;;;;;26.30;101153.00;;;;10319088;28;20199;-77
2022/10/29 12:03:40;;;;;;;9.43;3.67;;;;;26.70;101130.00;;;;10288918;28;20700;-77
2022/10/29 12:09:06;;;;;;;11.32;3.65;;;;;26.80;101138.00;;;;10296919;28;20227;-76
2022/10/29 12:14:28;;;;;;;29.80;4.88;;;;;27.10;101130.00;;;;10329450;28;20544;-77
2022/10/29 12:19:39;;;;;;;8.20;2.85;;;;;27.10;101122.00;;;;10326046;28;20218;-77
2022/10/29 12:25:14;;;;;;;14.05;3.45;;;;;26.30;101126.00;;;;10328999;28;20206;-76
2022/10/29 12:30:17;;;;;;;17.63;4.68;;;;;26.40;101115.00;;;;10320666;28;20192;-76
2022/10/29 12:35:52;;;;;;;28.05;5.55;;;;;26.60;101114.00;;;;10295264;28;20196;-77
2022/10/29 12:41:01;;;;;;;14.15;3.97;;;;;26.80;101108.00;;;;10292385;28;20201;-76
2022/10/29 12:46:18;;;;;;;12.65;3.22;;;;;26.90;101088.00;;;;10303722;28;20208;-77
2022/10/29 12:51:54;;;;;;;11.00;3.92;;;;;27.00;101091.00;;;;10292245;28;20706;-76
2022/10/29 12:57:13;;;;;;;11.73;3.20;;;;;27.30;101084.00;;;;10315916;28;20708;-76
2022/10/29 13:02:33;;;;;;;27.73;6.13;;;;;27.30;101090.00;;;;10308192;28;20202;-76
2022/10/29 13:07:58;;;;;;;11.73;3.47;;;;;27.20;101085.00;;;;10322126;28;20219;-77
2022/10/29 13:13:12;;;;;;;11.32;3.17;;;;;27.10;101080.00;;;;10322999;28;20203;-77
2022/10/29 13:18:45;;;;;;;15.23;3.35;;;;;27.20;101077.00;;;;10290496;28;20218;-76
2022/10/29 13:24:01;;;;;;;10.98;2.92;;;;;27.00;101064.00;;;;10290386;28;20216;-77
2022/10/29 13:29:03;;;;;;;8.70;3.20;;;;;26.80;101066.00;;;;10291165;28;20207;-76
2022/10/29 13:34:05;;;;;;;9.85;3.13;;;;;26.60;101058.00;;;;10317944;28;20192;-76
2022/10/29 13:39:18;;;;;;;15.90;3.92;;;;;26.50;101063.00;;;;10298500;28;20232;-76
2022/10/29 13:44:24;;;;;;;9.82;3.65;;;;;26.50;101055.00;;;;10305798;28;20227;-76
2022/10/29 13:49:38;;;;;;;11.57;3.60;;;;;26.50;101040.00;;;;10302793;28;20200;-76
2022/10/29 13:54:48;;;;;;;30.40;5.10;;;;;26.40;101043.00;;;;10268227;28;20211;-77
2022/10/29 14:00:05;;;;;;;11.90;3.35;;;;;26.80;101024.00;;;;10298943;28;20298;-77
2022/10/29 14:05:29;;;;;;;10.52;3.05;;;;;26.70;101006.00;;;;10292095;28;20216;-76
2022/10/29 14:10:56;;;;;;;11.27;3.33;;;;;26.20;101006.00;;;;10301410;28;20203;-76
2022/10/29 14:16:05;;;;;;;9.38;3.78;;;;;25.50;101018.00;;;;10291538;28;20198;-76
2022/10/29 14:21:21;;;;;;;11.88;3.28;;;;;25.20;101027.00;;;;10312874;28;20188;-75
2022/10/29 14:26:27;;;;;;;10.63;3.13;;;;;24.80;101030.00;;;;10310614;28;20230;-76
2022/10/29 14:31:29;;;;;;;7.50;2.60;;;;;24.40;101023.00;;;;10271533;28;20192;-76
2022/10/29 14:36:41;;;;;;;8.90;3.25;;;;;24.20;101016.00;;;;10269285;28;20224;-76
2022/10/29 14:41:44;;;;;;;7.95;3.13;;;;;24.10;101026.00;;;;10319049;28;20219;-76
2022/10/29 14:46:56;;;;;;;7.85;2.60;;;;;23.80;101023.00;;;;10315693;28;20219;-75
2022/10/29 14:52:02;;;;;;;5.90;3.50;;;;;23.50;101012.00;;;;10293036;28;20212;-75
2022/10/29 14:57:18;;;;;;;11.93;2.97;;;;;23.20;101024.00;;;;10303539;28;20200;-76
2022/10/29 15:02:21;;;;;;;9.05;2.78;;;;;23.00;101017.00;;;;10291640;28;20191;-76
2022/10/29 15:07:39;;;;;;;8.65;2.78;;;;;23.00;101010.00;;;;10295713;28;20220;-75
2022/10/29 15:12:41;;;;;;;12.27;3.85;;;;;22.90;101010.00;;;;10273643;28;20201;-75
2022/10/29 15:17:55;;;;;;;7.43;2.97;;;;;22.70;101011.00;;;;10301079;28;20196;-75
2022/10/29 15:22:58;;;;;;;9.05;3.45;;;;;22.60;101017.00;;;;10317786;28;20204;-75
2022/10/29 15:28:01;;;;;;;9.07;3.17;;;;;22.40;101000.00;;;;10271620;28;20211;-74
2022/10/29 15:33:14;;;;;;;8.15;3.33;;;;;22.20;101001.00;;;;10288519;28;20660;-75
2022/10/29 15:38:28;;;;;;;13.75;3.88;;;;;22.00;101008.00;;;;10308231;28;20197;-75
2022/10/29 15:43:30;;;;;;;8.98;3.20;;;;;21.80;100996.00;;;;10299213;28;20678;-75
2022/10/29 15:48:38;;;;;;;10.05;3.78;;;;;21.60;100986.00;;;;10301419;28;20687;-75
2022/10/29 15:53:41;;;;;;;12.00;3.38;;;;;21.30;100982.00;;;;10297617;28;20204;-75
2022/10/29 15:58:43;;;;;;;6.63;3.67;;;;;21.00;100978.00;;;;10298840;28;20193;-75
2022/10/29 16:03:44;;;;;;;8.75;3.75;;;;;20.60;100964.00;;;;10326604;28;20602;-75
2022/10/29 16:08:50;;;;;;;6.75;3.75;;;;;20.40;100975.00;;;;10319520;28;20218;-76
2022/10/29 16:13:53;;;;;;;9.25;3.20;;;;;20.20;100993.00;;;;10295312;28;20737;-75
2022/10/29 16:18:56;;;;;;;6.88;3.85;;;;;20.20;100981.00;;;;10315487;28;20204;-75
2022/10/29 16:23:59;;;;;;;11.15;4.38;;;;;20.10;100979.00;;;;10278301;28;20291;-75
2022/10/29 16:29:01;;;;;;;13.48;4.32;;;;;20.00;100988.00;;;;10297401;28;20203;-75
2022/10/29 16:34:04;;;;;;;10.00;4.35;;;;;20.00;100986.00;;;;10289400;28;20192;-75
2022/10/29 16:39:06;;;;;;;10.85;4.03;;;;;20.00;101005.00;;;;10303282;28;21063;-75
2022/10/29 16:44:08;;;;;;;9.70;4.97;;;;;19.80;101013.00;;;;10269185;28;20295;-76
2022/10/29 16:49:12;;;;;;;14.10;5.18;;;;;19.70;101032.00;;;;10271018;28;20203;-76
2022/10/29 16:54:14;;;;;;;12.25;4.70;;;;;19.60;101033.00;;;;10299821;28;20206;-76
2022/10/29 16:59:16;;;;;;;11.93;4.82;;;;;19.40;101032.00;;;;10264995;28;20260;-76
2022/10/29 17:04:18;;;;;;;12.23;5.28;;;;;19.20;101032.00;;;;10314609;28;20208;-76
2022/10/29 17:09:22;;;;;;;10.85;4.90;;;;;19.10;101034.00;;;;10312387;28;20238;-76
2022/10/29 17:14:26;;;;;;;10.90;4.55;;;;;19.00;101036.00;;;;10290878;28;21163;-76
2022/10/29 17:19:28;;;;;;;13.98;4.43;;;;;19.00;101047.00;;;;10278102;28;20571;-76
2022/10/29 17:24:30;;;;;;;10.35;4.13;;;;;19.00;101054.00;;;;10298692;28;20679;-77
2022/10/29 17:29:32;;;;;;;10.20;3.92;;;;;19.10;101058.00;;;;10294427;28;20622;-76
2022/10/29 17:34:37;;;;;;;10.15;4.13;;;;;19.10;101057.00;;;;10309889;28;20189;-76
2022/10/29 17:39:39;;;;;;;8.23;3.97;;;;;19.10;101040.00;;;;10272579;28;20200;-76
2022/10/29 17:44:41;;;;;;;7.43;3.63;;;;;19.10;101054.00;;;;10309457;28;20212;-76
2022/10/29 17:49:43;;;;;;;9.20;3.47;;;;;19.20;101054.00;;;;10277905;28;20223;-77
2022/10/29 17:54:44;;;;;;;13.02;3.75;;;;;19.20;101055.00;;;;10260720;28;20196;-77
2022/10/29 17:59:46;;;;;;;10.82;4.32;;;;;19.20;101046.00;;;;10302565;28;20192;-77
2022/10/29 18:04:48;;;;;;;11.02;3.65;;;;;19.10;101050.00;;;;10308318;28;20220;-77
2022/10/29 18:09:50;;;;;;;10.07;4.07;;;;;19.10;101056.00;;;;10273942;28;20196;-76
2022/10/29 18:14:52;;;;;;;7.90;3.75;;;;;19.00;101060.00;;;;10318364;28;20642;-77
2022/10/29 18:19:54;;;;;;;11.25;4.05;;;;;19.00;101060.00;;;;10301672;28;20388;-76
2022/10/29 18:24:56;;;;;;;10.40;3.65;;;;;18.80;101061.00;;;;10283279;28;20531;-76
2022/10/29 18:29:58;;;;;;;14.35;4.47;;;;;18.70;101063.00;;;;10285262;28;20251;-76
2022/10/29 18:35:00;;;;;;;9.57;4.50;;;;;18.60;101050.00;;;;10306015;28;20852;-76
2022/10/29 18:40:02;;;;;;;10.23;3.70;;;;;18.60;101068.00;;;;10298297;28;20197;-76
2022/10/29 18:45:04;;;;;;;8.82;4.40;;;;;18.60;101063.00;;;;10274534;28;20299;-77
2022/10/29 18:50:06;;;;;;;9.05;3.78;;;;;18.60;101060.00;;;;10306165;28;20643;-77
2022/10/29 18:55:08;;;;;;;10.80;4.60;;;;;18.60;101057.00;;;;10309809;28;20215;-76
2022/10/29 19:00:11;;;;;;;7.13;4.15;;;;;18.50;101057.00;;;;10307589;28;20662;-77
2022/10/29 19:05:13;;;;;;;9.10;4.30;;;;;18.50;101062.00;;;;10322042;28;20224;-77
2022/10/29 19:10:15;;;;;;;7.07;3.85;;;;;18.40;101065.00;;;;10311267;28;20624;-76
2022/10/29 19:15:17;;;;;;;10.50;4.35;;;;;18.40;101070.00;;;;10278584;28;20204;-76
2022/10/29 19:20:19;;;;;;;13.15;4.45;;;;;18.20;101076.00;;;;10279563;28;20205;-77
2022/10/29 19:25:22;;;;;;;11.90;4.22;;;;;18.20;101080.00;;;;10281967;28;20217;-76
2022/10/29 19:30:24;;;;;;;13.98;4.40;;;;;18.00;101084.00;;;;10325761;28;20223;-76
2022/10/29 19:35:26;;;;;;;8.93;4.10;;;;;17.90;101075.00;;;;10283513;28;20208;-76
2022/10/29 19:40:29;;;;;;;8.90;3.90;;;;;18.00;101077.00;;;;10288539;28;20287;-76
2022/10/29 19:45:31;;;;;;;15.13;4.75;;;;;18.00;101081.00;;;;10294626;28;20228;-77
2022/10/29 19:50:34;;;;;;;8.43;3.92;;;;;17.90;101077.00;;;;10284513;28;20188;-77
2022/10/29 19:55:39;;;;;;;11.63;4.30;;;;;17.90;101082.00;;;;10276579;28;20200;-76
2022/10/29 20:00:41;;;;;;;10.48;3.92;;;;;17.70;101075.00;;;;10301202;28;20591;-76
2022/10/29 20:05:44;;;;;;;11.10;4.78;;;;;17.70;101086.00;;;;10304757;28;20244;-76
2022/10/29 20:10:53;;;;;;;10.73;3.90;;;;;17.70;101082.00;;;;10276846;28;20583;-76
2022/10/29 20:15:55;;;;;;;9.02;3.63;;;;;17.70;101078.00;;;;10297758;28;20203;-76
2022/10/29 20:20:57;;;;;;;8.57;3.92;;;;;17.80;101073.00;;;;10266451;28;20706;-77
2022/10/29 20:25:59;;;;;;;12.93;3.92;;;;;17.70;101066.00;;;;10303622;28;20208;-77
2022/10/29 20:31:16;;;;;;;12.88;4.03;;;;;17.70;101075.00;;;;10327411;28;20248;-76
2022/10/29 20:36:19;;;;;;;6.72;3.72;;;;;17.80;101075.00;;;;10303906;28;21345;-77
2022/10/29 20:41:22;;;;;;;13.10;4.13;;;;;17.80;101078.00;;;;10291192;28;20192;-76
2022/10/29 20:46:24;;;;;;;10.38;4.18;;;;;17.70;101074.00;;;;10309420;28;20608;-76
2022/10/29 20:51:26;;;;;;;7.28;4.20;;;;;17.80;101078.00;;;;10302320;28;20252;-77
2022/10/29 20:56:29;;;;;;;8.52;3.97;;;;;17.70;101105.00;;;;10296980;28;20243;-76
2022/10/29 21:01:30;;;;;;;18.38;6.43;;;;;17.50;101099.00;;;;10291453;28;20193;-76
2022/10/29 21:06:32;;;;;;;7.80;3.83;;;;;17.30;101109.00;;;;10301867;28;20698;-77
2022/10/29 21:11:34;;;;;;;12.73;4.47;;;;;17.30;101113.00;;;;10318485;28;20703;-76
2022/10/29 21:16:36;;;;;;;14.85;5.07;;;;;17.20;101116.00;;;;10305537;28;20247;-76
2022/10/29 21:21:38;;;;;;;8.90;3.97;;;;;17.20;101119.00;;;;10296258;28;20196;-76
2022/10/29 21:26:40;;;;;;;16.45;4.70;;;;;17.10;101121.00;;;;10313109;28;20287;-76
2022/10/29 21:31:42;;;;;;;12.35;3.83;;;;;17.00;101126.00;;;;10303697;28;20197;-76
2022/10/29 21:36:44;;;;;;;9.95;3.97;;;;;16.90;101124.00;;;;10300044;28;20188;-76
2022/10/29 21:41:46;;;;;;;11.65;4.07;;;;;16.80;101132.00;;;;10312611;28;20263;-77
2022/10/29 21:46:48;;;;;;;10.57;4.18;;;;;16.80;101137.00;;;;10317936;28;20204;-77
2022/10/29 21:51:50;;;;;;;9.45;3.92;;;;;16.70;101142.00;;;;10286626;28;20283;-76
2022/10/29 21:56:52;;;;;;;12.95;4.28;;;;;16.60;101138.00;;;;10285829;28;20517;-76
2022/10/29 22:01:54;;;;;;;10.45;4.35;;;;;16.40;101142.00;;;;10273862;28;20682;-76
2022/10/29 22:06:56;;;;;;;16.33;4.20;;;;;16.30;101146.00;;;;10306393;28;20208;-77
2022/10/29 22:11:58;;;;;;;10.05;4.68;;;;;16.10;101149.00;;;;10297725;28;20192;-76
2022/10/29 22:16:59;;;;;;;12.15;4.35;;;;;16.00;101151.00;;;;10330333;28;20197;-76
2022/10/29 22:22:01;;;;;;;7.75;3.80;;;;;15.90;101154.00;;;;10292182;28;20189;-77
2022/10/29 22:27:04;;;;;;;10.55;4.75;;;;;15.80;101152.00;;;;10287978;28;20200;-76
2022/10/29 22:32:06;;;;;;;11.57;4.20;;;;;15.80;101155.00;;;;10278886;28;20239;-76
2022/10/29 22:37:08;;;;;;;12.98;4.43;;;;;15.80;101152.00;;;;10328644;28;20180;-76
2022/10/29 22:42:10;;;;;;;10.00;4.15;;;;;15.80;101167.00;;;;10289472;28;20204;-76
2022/10/29 22:47:12;;;;;;;14.75;6.07;;;;;15.80;101161.00;;;;10309681;28;20204;-76
2022/10/29 22:52:14;;;;;;;11.27;4.57;;;;;15.70;101162.00;;;;10312618;28;20196;-76
2022/10/29 22:57:16;;;;;;;12.03;4.77;;;;;15.60;101163.00;;;;10308416;28;20219;-76
2022/10/29 23:02:18;;;;;;;15.47;5.07;;;;;15.50;101170.00;;;;10312863;28;20651;-77
2022/10/29 23:07:20;;;;;;;11.18;5.20;;;;;15.50;101161.00;;;;10300545;28;20208;-76
2022/10/29 23:12:22;;;;;;;8.80;4.50;;;;;15.50;101163.00;;;;10270824;28;20288;-76
2022/10/29 23:17:23;;;;;;;9.13;4.60;;;;;15.50;101180.00;;;;10328260;28;20177;-76
2022/10/29 23:22:25;;;;;;;13.27;4.60;;;;;15.40;101178.00;;;;10318472;28;20184;-76
2022/10/29 23:27:28;;;;;;;11.33;4.67;;;;;15.30;101168.00;;;;10280045;28;20262;-76
2022/10/29 23:32:30;;;;;;;10.57;5.27;;;;;15.20;101175.00;;;;10292112;28;20195;-76
2022/10/29 23:37:32;;;;;;;7.33;4.90;;;;;15.10;101184.00;;;;10311302;28;20572;-76
2022/10/29 23:42:34;;;;;;;10.03;4.53;;;;;15.00;101173.00;;;;10276006;28;20196;-76
2022/10/29 23:47:36;;;;;;;8.17;5.77;;;;;14.90;101177.00;;;;10290951;28;20791;-77
2022/10/29 23:52:38;;;;;;;11.27;4.80;;;;;14.80;101170.00;;;;10299284;28;20201;-77
2022/10/29 23:57:40;;;;;;;12.13;5.20;;;;;14.60;101166.00;;;;10323829;28;20199;-76
